sim
Sign-in with your pilot id or email,
or register
Callsign
Passwort

Schedule Details

Flight Number: OEO8566
Departure: Bremen Airport (EDDW) at 10:30
Arrival: Vienna International Airport (LOWW) at 12:10

Weather Information
Getting current METAR information for EDDW 112020Z 23001KT 9999 FEW028 13/12 Q1025 NOSIG
Getting current METAR information for LOWW 112020Z 33008KT 9999 FEW008 SCT050 13/12 Q1023 NOSIG

Schedule Frequency

Route Map